Windsor Airport
CYQG : now visible

Airfield :











YOU CAN JOIN US ON...

 
LOGIN :

Register | Disclaimer

   EN    FR    IT 

 









Legend :    VFR   Marginal VFR   IFR   Intensive IFR   Very Intensive IFR
Visi :
Ceiling :
>= 8 km
>= 3000ft
5 to 8 km
1000 to 3000 ft
1500m to 5 km
500 to 1000 ft
800 to 1500m
200 to 500 ft
< 800m
< 200 ft
Symbols :   Thunderstorms  Fog  Heavy snow  Heavy precipitations  Wind > 20 kt






- Airport Elevation : 622 ft
- IATA code : YQG


CYQG - Windsor

CURRENT METAR :
  • 090400Z AUTO 35008KT 9SM -RA SCT048 OVC065 11/09 A2958 RMK PRESFR SLP018

EXPIRED METARs :
  • 090308Z AUTO 35012G21KT 6SM -RA BR FEW042 BKN050 OVC065 11/09 A2961 RMK LTNG DIST SE SLP028
  • 090241Z AUTO 33010G21KT 5SM -RA SCT048 BKN060 OVC075 13/08 A2961 RMK LTNG DIST SE S SW SLP030 DENSITY ALT 800FT
  • 090232Z AUTO 31016G22KT 9SM -RA OVC065 14/09 A2962 RMK LTNG DIST SW W WSHFT AT 0218Z SLP031 DENSITY ALT 900FT
  • 090213Z AUTO 24009KT 170V250 9SM -RA OVC075 13/11 A2960 RMK PRESRR SLP027 DENSITY ALT 800FT
  • 090200Z AUTO 17006KT 9SM OVC075 13/10 A2957 RMK SLP016 DENSITY ALT 900FT
  • 090146Z AUTO 10004KT 9SM BKN075 OVC094 13/10 A2957 RMK SLP014 DENSITY ALT 900FT
  • 090114Z AUTO 19004KT 9SM -RA BKN075 OVC092 15/10 A2957 RMK SLP017 DENSITY ALT 1100FT

TAF AMD TAF CYQG
Valid from the 09 at 02:00 until the 10 at 00:00 UTC


090244Z 0902/0924 33010KT P6SM -SHRA OVC050
TEMPO 0902/0905 33012G22KT 4SM SHRA BR BKN012 OVC050
PROB40 0902/0905 VRB18G28KT 2SM TSRA BR BKN005 OVC012
FM090500 31008G18KT 4SM -SHRA BR BKN009 OVC012
TEMPO 0905/0907 6SM -SHRA BR SCT012 OVC040
PROB40 0905/0907 3SM -SHRA BR OVC005
FM090700 32012G22KT P6SM BKN080
TEMPO 0907/0914 SCT008 BKN012 BKN080
FM091400 29015G25KT 5SM -SHRA BR SCT006 OVC012
FM091700 28018G28KT P6SM -SHRA BKN030
FM092300 29018G28KT 5SM -SHRA BR OVC015 RMK FCST BASED ON AUTO OBS. NXT FCST BY 090600Z



MET'MAP, your aeronautical weather chart ! - Copyright ORBIFLY December 2007 - Disclaimer

ORBIFLY MET'MAP TEAM :

Programming & Development : Alexandra Zaïnal
Concept & original design : Baudouin d'Aumeries
Assistance for programming : Marc-Olivier Méhu
Technical & hardware support : Manuel Goepfert

Contact : metmap@orbifly.com




SOURCES & CREDITS :

   NOAA       Earth
Advisory